createdAt,value
2017-12-02T00:00:33.378Z,98442.09
2017-12-02T00:01:36.604Z,98451.02
2017-12-02T00:02:39.514Z,98445.50
2017-12-02T00:03:42.530Z,98449.56
2017-12-02T00:04:45.457Z,98448.85
2017-12-02T00:05:48.419Z,98452.30
2017-12-02T00:06:51.391Z,98455.88
2017-12-02T00:07:54.922Z,98451.34
2017-12-02T00:08:57.935Z,98452.30
2017-12-02T00:10:00.855Z,98450.28
2017-12-02T00:11:03.776Z,98452.85
2017-12-02T00:12:06.742Z,98456.25
2017-12-02T00:13:09.662Z,98454.70
2017-12-02T00:14:12.830Z,98460.75
2017-12-02T00:15:15.730Z,98462.63
2017-12-02T00:16:18.646Z,98453.36
2017-12-02T00:17:21.581Z,98457.37
2017-12-02T00:18:24.490Z,98457.05
2017-12-02T00:19:27.384Z,98450.98
2017-12-02T00:20:30.622Z,98454.18
2017-12-02T00:21:33.512Z,98449.27
2017-12-02T00:22:36.411Z,98453.91
2017-12-02T00:23:39.303Z,98460.75
2017-12-02T00:24:42.195Z,98459.16
2017-12-02T00:25:45.109Z,98457.30
2017-12-02T00:26:48.467Z,98460.44
2017-12-02T00:27:51.356Z,98471.73
2017-12-02T00:28:54.239Z,98466.34
2017-12-02T00:29:57.171Z,98472.21
2017-12-02T00:31:00.071Z,98473.27
2017-12-02T00:32:02.999Z,98475.28
2017-12-02T00:33:06.209Z,98476.59
2017-12-02T00:34:09.115Z,98476.63
2017-12-02T00:35:12.068Z,98481.38
2017-12-02T00:36:14.999Z,98476.34
2017-12-02T00:37:17.943Z,98481.21
2017-12-02T00:38:20.865Z,98477.03
2017-12-02T00:39:24.073Z,98479.57
2017-12-02T00:40:26.988Z,98481.72
2017-12-02T00:41:29.917Z,98484.44
2017-12-02T00:42:32.920Z,98485.42
2017-12-02T00:43:35.817Z,98482.05
2017-12-02T00:44:38.767Z,98488.39
2017-12-02T00:45:41.985Z,98484.34
2017-12-02T00:46:44.879Z,98485.70
2017-12-02T00:47:47.872Z,98487.44
2017-12-02T00:48:50.772Z,98495.96
2017-12-02T00:49:53.720Z,98495.45
2017-12-02T00:50:56.692Z,98495.05
2017-12-02T00:51:59.899Z,98493.67
2017-12-02T00:53:02.946Z,98490.73
2017-12-02T00:54:05.899Z,98491.03
2017-12-02T00:55:08.830Z,98494.38
2017-12-02T00:56:11.778Z,98494.50
2017-12-02T00:57:14.682Z,98488.52
2017-12-02T00:58:17.921Z,98488.94
2017-12-02T00:59:20.807Z,98498.34
2017-12-02T01:00:23.664Z,98489.17
2017-12-02T01:01:26.672Z,98489.33
2017-12-02T01:02:29.560Z,98492.68
2017-12-02T01:03:32.550Z,98494.52
2017-12-02T01:04:35.616Z,98502.56
2017-12-02T01:05:38.703Z,98497.78
2017-12-02T01:06:41.626Z,98501.11
2017-12-02T01:07:44.580Z,98496.83
2017-12-02T01:08:47.492Z,98507.31
2017-12-02T01:09:50.712Z,98502.55
2017-12-02T01:10:53.782Z,98506.08
2017-12-02T01:11:56.809Z,98513.24
2017-12-02T01:12:59.726Z,98518.02
2017-12-02T01:14:02.767Z,98519.12
2017-12-02T01:15:05.695Z,98524.34
2017-12-02T01:16:09.071Z,98527.12
2017-12-02T01:17:12.136Z,98523.41
2017-12-02T01:18:15.111Z,98528.39
2017-12-02T01:19:17.977Z,98525.05
2017-12-02T01:20:20.915Z,98531.52
2017-12-02T01:21:23.999Z,98530.73
2017-12-02T01:22:26.892Z,98526.70
2017-12-02T01:23:30.595Z,98531.03
2017-12-02T01:24:33.682Z,98534.31
2017-12-02T01:25:36.772Z,98539.33
2017-12-02T01:26:39.725Z,98537.55
2017-12-02T01:27:42.980Z,98542.88
2017-12-02T01:28:45.897Z,98543.59
2017-12-02T01:29:48.800Z,98547.73
2017-12-02T01:30:51.780Z,98550.21
2017-12-02T01:31:54.807Z,98548.53
2017-12-02T01:32:57.704Z,98548.48
2017-12-02T01:34:00.884Z,98546.77
2017-12-02T01:35:03.809Z,98548.42
2017-12-02T01:36:06.740Z,98553.84
2017-12-02T01:37:09.671Z,98556.81
2017-12-02T01:38:12.576Z,98558.23
2017-12-02T01:39:15.524Z,98564.97
2017-12-02T01:40:18.749Z,98565.48
2017-12-02T01:41:21.665Z,98563.09
2017-12-02T01:42:24.594Z,98569.84
2017-12-02T01:43:27.521Z,98567.33
2017-12-02T01:44:30.874Z,98576.15
2017-12-02T01:45:33.752Z,98571.41
2017-12-02T01:46:36.692Z,98568.62
2017-12-02T01:47:40.247Z,98569.86
2017-12-02T01:48:43.151Z,98577.70
2017-12-02T01:49:46.104Z,98574.26
2017-12-02T01:50:49.016Z,98570.98
2017-12-02T01:51:51.928Z,98574.41
2017-12-02T01:52:54.848Z,98574.66
2017-12-02T01:53:57.777Z,98585.81
2017-12-02T01:55:00.726Z,98577.23
2017-12-02T01:56:03.624Z,98581.04
2017-12-02T01:57:07.024Z,98582.20
2017-12-02T01:58:09.971Z,98587.48
2017-12-02T01:59:12.869Z,98586.33
2017-12-02T02:00:15.755Z,98580.45
2017-12-02T02:01:18.771Z,98592.13
2017-12-02T02:02:21.744Z,98590.59
2017-12-02T02:03:25.049Z,98586.07
2017-12-02T02:04:28.047Z,98594.73
2017-12-02T02:05:30.958Z,98595.58
2017-12-02T02:06:34.138Z,98593.11
2017-12-02T02:07:37.126Z,98601.45
2017-12-02T02:08:40.029Z,98598.48
2017-12-02T02:09:43.371Z,98604.73
2017-12-02T02:10:46.302Z,98598.52
2017-12-02T02:11:49.224Z,98597.91
2017-12-02T02:12:52.124Z,98597.83
2017-12-02T02:13:55.064Z,98591.05
2017-12-02T02:14:57.971Z,98586.91
2017-12-02T02:16:01.203Z,98586.58
2017-12-02T02:17:05.021Z,98584.95
2017-12-02T02:18:08.463Z,98592.58
2017-12-02T02:19:11.275Z,98593.45
2017-12-02T02:20:14.102Z,98590.83
2017-12-02T02:21:16.974Z,98594.74
2017-12-02T02:22:20.320Z,98589.18
2017-12-02T02:23:23.269Z,98589.28
2017-12-02T02:24:26.304Z,98591.17
2017-12-02T02:25:29.313Z,98590.28
2017-12-02T02:26:32.253Z,98591.13
2017-12-02T02:27:35.224Z,98588.88
2017-12-02T02:28:38.564Z,98589.55
2017-12-02T02:29:41.553Z,98583.02
2017-12-02T02:30:44.477Z,98585.59
2017-12-02T02:31:47.407Z,98589.33
2017-12-02T02:32:50.349Z,98585.96
2017-12-02T02:33:53.346Z,98586.98
2017-12-02T02:34:56.673Z,98581.60
2017-12-02T02:35:59.634Z,98585.25
2017-12-02T02:37:02.605Z,98586.78
2017-12-02T02:38:05.549Z,98587.22
2017-12-02T02:39:08.469Z,98598.25
2017-12-02T02:40:11.399Z,98596.72
2017-12-02T02:41:14.677Z,98593.58
2017-12-02T02:42:17.620Z,98594.98
2017-12-02T02:43:20.513Z,98588.05
2017-12-02T02:44:23.488Z,98583.98
2017-12-02T02:45:26.384Z,98581.55
2017-12-02T02:46:29.321Z,98582.26
2017-12-02T02:47:32.740Z,98583.70
2017-12-02T02:48:35.653Z,98585.09
2017-12-02T02:49:38.598Z,98583.94
2017-12-02T02:50:41.622Z,98588.00
2017-12-02T02:51:44.652Z,98579.57
2017-12-02T02:52:47.489Z,98583.25
2017-12-02T02:53:50.790Z,98581.46
2017-12-02T02:54:53.722Z,98588.64
2017-12-02T02:55:56.627Z,98592.95
2017-12-02T02:56:59.480Z,98591.37
2017-12-02T02:58:02.460Z,98594.53
2017-12-02T02:59:05.376Z,98591.03
2017-12-02T03:00:08.301Z,98583.83
2017-12-02T03:01:11.841Z,98587.91
2017-12-02T03:02:14.738Z,98592.32
2017-12-02T03:03:17.665Z,98586.83
2017-12-02T03:04:20.553Z,98592.86
2017-12-02T03:05:23.535Z,98595.05
2017-12-02T03:06:26.443Z,98603.59
2017-12-02T03:07:29.391Z,98607.30
2017-12-02T03:08:32.392Z,98612.17
2017-12-02T03:09:35.371Z,98611.42
2017-12-02T03:10:38.318Z,98614.36
2017-12-02T03:11:41.664Z,98606.94
2017-12-02T03:12:44.576Z,98611.41
2017-12-02T03:13:47.513Z,98614.37
2017-12-02T03:14:50.408Z,98616.31
2017-12-02T03:15:53.388Z,98612.73
2017-12-02T03:16:56.316Z,98610.22
2017-12-02T03:17:59.743Z,98609.50
2017-12-02T03:19:02.643Z,98609.20
2017-12-02T03:20:05.579Z,98609.98
2017-12-02T03:21:08.395Z,98609.75
2017-12-02T03:22:11.266Z,98608.37
2017-12-02T03:23:14.103Z,98608.31
2017-12-02T03:24:17.391Z,98611.45
2017-12-02T03:25:20.343Z,98611.22
2017-12-02T03:26:23.301Z,98609.41
2017-12-02T03:27:26.292Z,98610.98
2017-12-02T03:28:29.210Z,98619.91
2017-12-02T03:29:32.057Z,98616.17
2017-12-02T03:30:35.347Z,98613.69
2017-12-02T03:31:38.179Z,98616.11
2017-12-02T03:32:40.999Z,98616.92
2017-12-02T03:33:43.830Z,98622.88
2017-12-02T03:34:47.123Z,98620.11
2017-12-02T03:35:49.986Z,98622.04
2017-12-02T03:36:53.216Z,98616.69
2017-12-02T03:37:56.047Z,98621.84
2017-12-02T03:38:58.957Z,98622.19
2017-12-02T03:40:01.890Z,98630.16
2017-12-02T03:41:04.866Z,98629.76
2017-12-02T03:42:07.784Z,98631.08
2017-12-02T03:43:11.268Z,98631.47
2017-12-02T03:44:14.248Z,98634.61
2017-12-02T03:45:17.128Z,98637.64
2017-12-02T03:46:19.969Z,98634.72
2017-12-02T03:47:22.808Z,98638.38
2017-12-02T03:48:25.693Z,98634.94
2017-12-02T03:49:29.055Z,98631.66
2017-12-02T03:50:31.953Z,98636.33
2017-12-02T03:51:34.884Z,98635.61
2017-12-02T03:52:37.894Z,98639.08
2017-12-02T03:53:40.681Z,98640.69
2017-12-02T03:54:43.497Z,98641.95
2017-12-02T03:55:47.045Z,98640.73
2017-12-02T03:56:49.951Z,98648.45
2017-12-02T03:57:52.947Z,98643.48
2017-12-02T03:58:56.018Z,98642.21
2017-12-02T03:59:59.113Z,98644.72
2017-12-02T04:01:02.121Z,98652.91
2017-12-02T04:02:05.517Z,98650.91
2017-12-02T04:03:09.491Z,98655.26
2017-12-02T04:04:12.559Z,98658.13
2017-12-02T04:05:15.557Z,98659.78
2017-12-02T04:06:18.583Z,98654.77
2017-12-02T04:07:21.502Z,98654.72
2017-12-02T04:08:24.870Z,98648.62
2017-12-02T04:09:27.830Z,98658.63
2017-12-02T04:10:30.758Z,98662.59
2017-12-02T04:11:33.628Z,98657.09
2017-12-02T04:12:36.578Z,98658.37
2017-12-02T04:13:39.420Z,98662.14
2017-12-02T04:14:42.621Z,98658.63
2017-12-02T04:15:45.562Z,98661.16
2017-12-02T04:16:48.553Z,98658.85
2017-12-02T04:17:51.563Z,98655.16
2017-12-02T04:18:54.533Z,98660.06
2017-12-02T04:19:57.472Z,98665.63
2017-12-02T04:21:00.900Z,98659.33
2017-12-02T04:22:03.821Z,98663.92
2017-12-02T04:23:06.781Z,98655.95
2017-12-02T04:24:09.700Z,98659.67
2017-12-02T04:25:12.630Z,98660.70
2017-12-02T04:26:15.683Z,98663.06
2017-12-02T04:27:18.913Z,98666.17
2017-12-02T04:28:21.767Z,98666.03
2017-12-02T04:29:24.601Z,98662.22
2017-12-02T04:30:27.503Z,98668.42
2017-12-02T04:31:30.434Z,98666.08
2017-12-02T04:32:33.267Z,98663.03
2017-12-02T04:33:36.545Z,98673.41
2017-12-02T04:34:39.368Z,98667.92
2017-12-02T04:35:42.212Z,98666.75
2017-12-02T04:36:45.050Z,98669.15
2017-12-02T04:37:47.901Z,98668.97
2017-12-02T04:38:50.737Z,98667.81
2017-12-02T04:39:53.987Z,98670.78
2017-12-02T04:40:56.834Z,98674.95
2017-12-02T04:41:59.683Z,98669.20
2017-12-02T04:43:02.551Z,98672.23
2017-12-02T04:44:05.384Z,98668.11
2017-12-02T04:45:08.246Z,98672.98
2017-12-02T04:46:11.433Z,98668.91
2017-12-02T04:47:14.251Z,98673.22
2017-12-02T04:48:17.094Z,98672.73
2017-12-02T04:49:19.934Z,98670.96
2017-12-02T04:50:22.852Z,98672.63
2017-12-02T04:51:25.780Z,98672.48
2017-12-02T04:52:29.191Z,98667.77
2017-12-02T04:53:32.062Z,98660.70
2017-12-02T04:54:35.003Z,98664.39
2017-12-02T04:55:37.947Z,98665.27
2017-12-02T04:56:40.964Z,98664.55
2017-12-02T04:57:43.884Z,98663.74
2017-12-02T04:58:47.213Z,98664.73
2017-12-02T04:59:50.075Z,98659.64
2017-12-02T05:00:53.028Z,98659.19
2017-12-02T05:01:55.965Z,98664.80
2017-12-02T05:02:59.012Z,98665.56
2017-12-02T05:04:01.993Z,98663.64
2017-12-02T05:05:05.323Z,98660.04
2017-12-02T05:06:08.244Z,98664.91
2017-12-02T05:07:11.181Z,98664.00
2017-12-02T05:08:14.145Z,98667.70
2017-12-02T05:09:17.091Z,98667.33
2017-12-02T05:10:20.044Z,98664.83
2017-12-02T05:11:23.329Z,98666.60
2017-12-02T05:12:26.232Z,98671.32
2017-12-02T05:13:29.152Z,98674.80
2017-12-02T05:14:32.090Z,98673.70
2017-12-02T05:15:35.048Z,98674.52
2017-12-02T05:16:37.985Z,98673.61
2017-12-02T05:17:41.372Z,98679.06
2017-12-02T05:18:44.300Z,98677.68
2017-12-02T05:19:47.232Z,98673.03
2017-12-02T05:20:50.142Z,98673.19
2017-12-02T05:21:53.085Z,98678.65
2017-12-02T05:22:56.060Z,98675.56
2017-12-02T05:23:59.477Z,98676.98
2017-12-02T05:25:02.465Z,98679.95
2017-12-02T05:26:05.384Z,98676.23
2017-12-02T05:27:08.328Z,98673.70
2017-12-02T05:28:11.275Z,98677.47
2017-12-02T05:29:14.233Z,98680.56
2017-12-02T05:30:17.573Z,98671.65
2017-12-02T05:31:20.523Z,98675.42
2017-12-02T05:32:23.430Z,98680.20
2017-12-02T05:33:26.354Z,98673.75
2017-12-02T05:34:29.311Z,98674.07
2017-12-02T05:35:32.301Z,98674.78
2017-12-02T05:36:35.641Z,98680.09
2017-12-02T05:37:38.552Z,98680.48
2017-12-02T05:38:41.485Z,98675.37
2017-12-02T05:39:44.466Z,98676.22
2017-12-02T05:40:47.396Z,98681.95
2017-12-02T05:41:50.267Z,98687.75
2017-12-02T05:42:53.578Z,98684.19
2017-12-02T05:43:56.451Z,98681.63
2017-12-02T05:44:59.326Z,98680.13
2017-12-02T05:46:02.208Z,98676.31
2017-12-02T05:47:05.089Z,98682.81
2017-12-02T05:48:07.946Z,98674.09
2017-12-02T05:49:11.225Z,98682.48
2017-12-02T05:50:14.078Z,98682.97
2017-12-02T05:51:16.998Z,98673.91
2017-12-02T05:52:19.878Z,98679.04
2017-12-02T05:53:22.721Z,98686.92
2017-12-02T05:54:25.549Z,98681.50
2017-12-02T05:55:28.951Z,98685.88
2017-12-02T05:56:31.885Z,98683.23
2017-12-02T05:57:34.826Z,98689.05
2017-12-02T05:58:37.779Z,98684.66
2017-12-02T05:59:40.723Z,98685.20
2017-12-02T06:00:43.637Z,98681.59
2017-12-02T06:01:46.976Z,98687.12
2017-12-02T06:02:49.940Z,98685.41
2017-12-02T06:03:53.066Z,98692.64
2017-12-02T06:04:56.030Z,98692.42
2017-12-02T06:05:59.074Z,98691.38
2017-12-02T06:07:02.038Z,98691.00
2017-12-02T06:08:05.426Z,98709.18
2017-12-02T06:09:08.394Z,98702.01
2017-12-02T06:10:11.277Z,98704.24
2017-12-02T06:11:14.230Z,98703.77
2017-12-02T06:12:17.109Z,98706.02
2017-12-02T06:13:20.121Z,98712.67
2017-12-02T06:14:23.470Z,98711.63
2017-12-02T06:15:26.302Z,98708.64
2017-12-02T06:16:29.109Z,98708.42
2017-12-02T06:17:31.962Z,98705.15
2017-12-02T06:18:34.924Z,98708.80
2017-12-02T06:19:37.845Z,98707.52
2017-12-02T06:20:41.324Z,98708.16
2017-12-02T06:21:44.200Z,98702.12
2017-12-02T06:22:47.031Z,98706.61
2017-12-02T06:23:49.996Z,98710.55
2017-12-02T06:24:52.971Z,98711.19
2017-12-02T06:25:55.911Z,98707.32
2017-12-02T06:26:59.241Z,98705.98
2017-12-02T06:28:02.221Z,98714.42
2017-12-02T06:29:05.176Z,98712.30
2017-12-02T06:30:08.118Z,98711.69
2017-12-02T06:31:11.690Z,98708.22
2017-12-02T06:32:14.562Z,98710.34
2017-12-02T06:33:17.824Z,98705.93
2017-12-02T06:34:20.806Z,98709.84
2017-12-02T06:35:23.781Z,98711.52
2017-12-02T06:36:26.637Z,98711.13
2017-12-02T06:37:29.500Z,98709.05
2017-12-02T06:38:32.412Z,98714.56
2017-12-02T06:39:35.746Z,98709.10
2017-12-02T06:40:38.611Z,98716.03
2017-12-02T06:41:41.500Z,98714.56
2017-12-02T06:42:44.457Z,98721.05
2017-12-02T06:43:47.536Z,98717.47
2017-12-02T06:44:50.529Z,98716.27
2017-12-02T06:45:54.180Z,98717.22
2017-12-02T06:46:57.261Z,98714.01
2017-12-02T06:48:00.234Z,98710.99
2017-12-02T06:49:03.371Z,98707.76
2017-12-02T06:50:06.344Z,98713.59
2017-12-02T06:51:09.345Z,98714.13
2017-12-02T06:52:12.611Z,98720.20
2017-12-02T06:53:15.646Z,98720.00
2017-12-02T06:54:18.640Z,98719.53
2017-12-02T06:55:21.614Z,98730.39
2017-12-02T06:56:24.572Z,98730.38
2017-12-02T06:57:27.497Z,98733.42
2017-12-02T06:58:30.826Z,98734.16
2017-12-02T06:59:33.742Z,98735.61
2017-12-02T07:00:36.713Z,98741.11
2017-12-02T07:01:39.847Z,98740.31
2017-12-02T07:02:42.892Z,98745.11
2017-12-02T07:03:46.393Z,98739.80
2017-12-02T07:04:49.471Z,98742.41
2017-12-02T07:05:52.617Z,98741.16
2017-12-02T07:06:55.733Z,98738.00
2017-12-02T07:07:58.888Z,98743.25
2017-12-02T07:09:01.921Z,98741.72
2017-12-02T07:10:05.521Z,98746.44
2017-12-02T07:11:08.690Z,98744.14
2017-12-02T07:12:11.812Z,98743.00
2017-12-02T07:13:14.967Z,98740.28
2017-12-02T07:14:18.135Z,98741.36
2017-12-02T07:15:21.212Z,98741.11
2017-12-02T07:16:24.911Z,98746.98
2017-12-02T07:17:27.997Z,98752.06
2017-12-02T07:18:31.102Z,98744.28
2017-12-02T07:19:34.216Z,98751.80
2017-12-02T07:20:37.318Z,98749.58
2017-12-02T07:21:41.267Z,98748.35
2017-12-02T07:22:44.691Z,98745.84
2017-12-02T07:23:47.797Z,98751.63
2017-12-02T07:24:50.843Z,98751.89
2017-12-02T07:25:53.884Z,98750.41
2017-12-02T07:26:56.944Z,98759.69
2017-12-02T07:27:59.972Z,98760.16
2017-12-02T07:29:03.401Z,98772.80
2017-12-02T07:30:06.550Z,98772.95
2017-12-02T07:31:09.684Z,98770.25
2017-12-02T07:32:12.724Z,98770.65
2017-12-02T07:33:15.642Z,98769.44
2017-12-02T07:34:18.598Z,98767.31
2017-12-02T07:35:21.879Z,98779.34
2017-12-02T07:36:24.846Z,98772.30
2017-12-02T07:37:27.844Z,98772.46
2017-12-02T07:38:30.759Z,98775.52
2017-12-02T07:39:33.813Z,98773.81
2017-12-02T07:40:36.717Z,98770.50
2017-12-02T07:41:39.740Z,98777.38
2017-12-02T07:42:42.709Z,98777.88
2017-12-02T07:43:45.725Z,98779.34
2017-12-02T07:44:48.804Z,98776.50
2017-12-02T07:45:51.795Z,98777.72
2017-12-02T07:46:55.183Z,98774.04
2017-12-02T07:47:58.114Z,98775.52
2017-12-02T07:49:01.149Z,98777.22
2017-12-02T07:50:04.131Z,98778.66
2017-12-02T07:51:07.079Z,98791.34
2017-12-02T07:52:10.014Z,98784.03
2017-12-02T07:53:13.415Z,98781.62
2017-12-02T07:54:16.334Z,98787.06
2017-12-02T07:55:19.295Z,98789.52
2017-12-02T07:56:22.289Z,98783.95
2017-12-02T07:57:25.357Z,98790.60
2017-12-02T07:58:28.354Z,98782.33
2017-12-02T07:59:31.801Z,98790.26
2017-12-02T08:00:34.768Z,98791.48
2017-12-02T08:01:37.728Z,98790.47
2017-12-02T08:02:40.749Z,98795.11
2017-12-02T08:03:43.559Z,98795.02
2017-12-02T08:04:46.443Z,98793.12
2017-12-02T08:05:49.636Z,98794.83
2017-12-02T08:06:52.500Z,98796.70
2017-12-02T08:07:55.326Z,98797.48
2017-12-02T08:08:58.170Z,98789.80
2017-12-02T08:10:01.010Z,98795.16
2017-12-02T08:11:03.962Z,98794.10
2017-12-02T08:12:07.421Z,98798.03
2017-12-02T08:13:10.382Z,98805.10
2017-12-02T08:14:13.322Z,98807.06
2017-12-02T08:15:16.283Z,98810.41
2017-12-02T08:16:19.243Z,98812.60
2017-12-02T08:17:22.243Z,98813.10
2017-12-02T08:18:25.589Z,98813.33
2017-12-02T08:19:28.547Z,98817.88
2017-12-02T08:20:31.713Z,98814.48
2017-12-02T08:21:34.783Z,98816.67
2017-12-02T08:22:37.758Z,98817.61
2017-12-02T08:23:40.723Z,98816.59
2017-12-02T08:24:43.879Z,98820.72
2017-12-02T08:25:46.713Z,98825.11
2017-12-02T08:26:49.546Z,98825.17
2017-12-02T08:27:52.426Z,98823.31
2017-12-02T08:28:55.397Z,98818.88
2017-12-02T08:29:58.311Z,98816.72
2017-12-02T08:31:01.713Z,98816.59
2017-12-02T08:32:04.652Z,98821.61
2017-12-02T08:33:07.617Z,98819.09
2017-12-02T08:34:10.594Z,98822.76
2017-12-02T08:35:13.531Z,98819.18
2017-12-02T08:36:16.445Z,98825.06
2017-12-02T08:37:19.482Z,98825.77
2017-12-02T08:38:22.410Z,98823.87
2017-12-02T08:39:25.402Z,98825.13
2017-12-02T08:40:28.463Z,98822.17
2017-12-02T08:41:31.469Z,98826.16
2017-12-02T08:42:34.410Z,98824.88
2017-12-02T08:43:37.852Z,98821.25
2017-12-02T08:44:40.822Z,98832.58
2017-12-02T08:45:43.787Z,98826.30
2017-12-02T08:46:46.717Z,98834.70
2017-12-02T08:47:49.599Z,98826.88
2017-12-02T08:48:52.550Z,98834.31
2017-12-02T08:49:55.911Z,98833.27
2017-12-02T08:50:58.878Z,98836.45
2017-12-02T08:52:01.875Z,98841.62
2017-12-02T08:53:04.871Z,98840.64
2017-12-02T08:54:07.818Z,98843.97
2017-12-02T08:55:11.553Z,98846.47
2017-12-02T08:56:14.965Z,98845.13
2017-12-02T08:57:17.976Z,98843.88
2017-12-02T08:58:20.901Z,98853.25
2017-12-02T08:59:23.930Z,98849.31
2017-12-02T09:00:26.918Z,98847.84
2017-12-02T09:01:29.958Z,98853.31
2017-12-02T09:02:33.356Z,98851.15
2017-12-02T09:03:36.481Z,98851.94
2017-12-02T09:04:39.477Z,98846.30
2017-12-02T09:05:42.469Z,98851.08
2017-12-02T09:06:45.408Z,98849.02
2017-12-02T09:07:48.418Z,98853.73
2017-12-02T09:08:51.358Z,98855.86
2017-12-02T09:09:54.425Z,98850.75
2017-12-02T09:10:57.367Z,98849.87
2017-12-02T09:12:00.331Z,98859.11
2017-12-02T09:13:03.325Z,98853.95
2017-12-02T09:14:06.681Z,98865.75
2017-12-02T09:15:09.800Z,98857.17
2017-12-02T09:16:12.807Z,98858.48
2017-12-02T09:17:15.827Z,98851.70
2017-12-02T09:18:18.789Z,98847.48
2017-12-02T09:19:21.804Z,98846.47
2017-12-02T09:20:26.210Z,98850.98
2017-12-02T09:21:29.194Z,98849.73
2017-12-02T09:22:32.172Z,98845.67
2017-12-02T09:23:35.789Z,98851.25
2017-12-02T09:24:38.828Z,98854.26
2017-12-02T09:25:42.213Z,98855.73
2017-12-02T09:26:45.545Z,98853.33
2017-12-02T09:27:48.497Z,98855.56
2017-12-02T09:28:51.425Z,98854.22
2017-12-02T09:29:54.421Z,98856.31
2017-12-02T09:30:57.604Z,98854.63
2017-12-02T09:32:00.621Z,98853.52
2017-12-02T09:33:03.927Z,98853.23
2017-12-02T09:34:07.001Z,98852.10
2017-12-02T09:35:11.067Z,98854.32
2017-12-02T09:36:14.110Z,98859.70
2017-12-02T09:37:17.165Z,98859.57
2017-12-02T09:38:20.191Z,98862.23
2017-12-02T09:39:23.475Z,98865.80
2017-12-02T09:40:26.474Z,98866.91
2017-12-02T09:41:29.488Z,98868.69
2017-12-02T09:42:32.404Z,98873.41
2017-12-02T09:43:35.433Z,98872.50
2017-12-02T09:44:38.470Z,98874.89
2017-12-02T09:45:41.696Z,98878.55
2017-12-02T09:46:44.650Z,98877.17
2017-12-02T09:47:47.577Z,98879.97
2017-12-02T09:48:50.469Z,98879.78
2017-12-02T09:49:53.466Z,98879.49
2017-12-02T09:50:56.445Z,98886.55
2017-12-02T09:51:59.747Z,98887.50
2017-12-02T09:53:02.750Z,98888.16
2017-12-02T09:54:05.748Z,98893.13
2017-12-02T09:55:08.726Z,98893.66
2017-12-02T09:56:11.778Z,98891.02
2017-12-02T09:57:14.716Z,98896.52
2017-12-02T09:58:18.012Z,98890.27
2017-12-02T09:59:20.969Z,98894.30
2017-12-02T10:00:24.005Z,98898.22
2017-12-02T10:01:27.032Z,98895.29
2017-12-02T10:02:29.996Z,98883.25
2017-12-02T10:03:32.957Z,98893.67
2017-12-02T10:04:36.210Z,98896.07
2017-12-02T10:05:39.184Z,98891.49
2017-12-02T10:06:42.283Z,98892.27
2017-12-02T10:07:45.282Z,98892.56
2017-12-02T10:08:49.115Z,98892.66
2017-12-02T10:09:53.737Z,98894.35
2017-12-02T10:10:57.254Z,98885.02
2017-12-02T10:12:00.298Z,98887.06
2017-12-02T10:13:03.303Z,98886.61
2017-12-02T10:14:06.451Z,98889.58
2017-12-02T10:15:09.519Z,98886.34
2017-12-02T10:16:12.594Z,98882.34
2017-12-02T10:17:15.959Z,98883.52
2017-12-02T10:18:18.955Z,98876.09
2017-12-02T10:19:22.031Z,98881.59
2017-12-02T10:20:25.072Z,98881.28
2017-12-02T10:21:28.249Z,98883.64
2017-12-02T10:22:31.461Z,98879.05
2017-12-02T10:23:34.781Z,98880.23
2017-12-02T10:24:37.826Z,98879.61
2017-12-02T10:25:41.638Z,98876.44
2017-12-02T10:26:44.645Z,98877.31
2017-12-02T10:27:47.564Z,98887.07
2017-12-02T10:28:50.898Z,98887.59
2017-12-02T10:29:54.224Z,98884.66
2017-12-02T10:30:57.248Z,98877.82
2017-12-02T10:32:00.235Z,98883.42
2017-12-02T10:33:03.383Z,98884.64
2017-12-02T10:34:06.318Z,98882.52
2017-12-02T10:35:09.407Z,98881.47
2017-12-02T10:36:12.732Z,98884.07
2017-12-02T10:37:15.689Z,98880.98
2017-12-02T10:38:18.606Z,98882.38
2017-12-02T10:39:21.532Z,98877.34
2017-12-02T10:40:24.530Z,98879.33
2017-12-02T10:41:27.820Z,98875.39
2017-12-02T10:42:31.655Z,98879.16
2017-12-02T10:43:34.709Z,98877.33
2017-12-02T10:44:38.130Z,98876.30
2017-12-02T10:45:41.245Z,98886.40
2017-12-02T10:46:44.319Z,98880.40
2017-12-02T10:47:47.335Z,98876.75
2017-12-02T10:48:50.658Z,98883.59
2017-12-02T10:49:53.593Z,98879.31
2017-12-02T10:50:56.728Z,98875.93
2017-12-02T10:51:59.749Z,98880.12
2017-12-02T10:53:07.871Z,98881.16
2017-12-02T10:54:13.813Z,98877.69
2017-12-02T10:55:17.242Z,98878.21
2017-12-02T10:56:20.235Z,98879.66
2017-12-02T10:57:23.234Z,98879.75
2017-12-02T10:58:26.296Z,98884.09
2017-12-02T10:59:29.290Z,98881.44
2017-12-02T11:00:40.126Z,98883.77
2017-12-02T11:01:43.031Z,98878.55
2017-12-02T11:02:45.913Z,98875.22
2017-12-02T11:03:48.918Z,98883.70
2017-12-02T11:04:51.894Z,98883.95
2017-12-02T11:05:54.733Z,98871.83
2017-12-02T11:06:58.032Z,98886.34
2017-12-02T11:08:01.718Z,98884.88
2017-12-02T11:09:04.675Z,98889.31
2017-12-02T11:10:07.714Z,98887.00
2017-12-02T11:11:10.722Z,98884.42
2017-12-02T11:12:13.830Z,98884.19
2017-12-02T11:13:17.387Z,98882.33
2017-12-02T11:14:20.610Z,98882.25
2017-12-02T11:15:23.550Z,98880.05
2017-12-02T11:16:27.061Z,98881.27
2017-12-02T11:17:30.019Z,98879.38
2017-12-02T11:18:32.974Z,98885.81
2017-12-02T11:19:36.561Z,98880.67
2017-12-02T11:20:39.543Z,98880.22
2017-12-02T11:21:43.077Z,98881.88
2017-12-02T11:22:46.082Z,98877.34
2017-12-02T11:23:49.039Z,98877.88
2017-12-02T11:24:52.452Z,98878.27
2017-12-02T11:25:55.414Z,98883.23
2017-12-02T11:26:58.341Z,98874.42
2017-12-02T11:28:01.484Z,98876.97
2017-12-02T11:29:04.367Z,98878.31
2017-12-02T11:30:07.367Z,98877.42
2017-12-02T11:31:10.312Z,98882.14
2017-12-02T11:32:13.255Z,98878.33
2017-12-02T11:33:19.001Z,98882.89
2017-12-02T11:34:22.022Z,98881.60
2017-12-02T11:35:25.081Z,98890.14
2017-12-02T11:36:28.489Z,98882.11
2017-12-02T11:37:31.477Z,98884.83
2017-12-02T11:38:34.452Z,98885.19
2017-12-02T11:39:37.569Z,98885.33
2017-12-02T11:40:40.955Z,98886.22
2017-12-02T11:41:43.995Z,98881.95
2017-12-02T11:42:47.189Z,98882.25
2017-12-02T11:43:50.221Z,98878.30
2017-12-02T11:44:54.064Z,98878.52
2017-12-02T11:45:57.103Z,98874.05
2017-12-02T11:47:00.153Z,98883.59
2017-12-02T11:48:03.760Z,98881.73
2017-12-02T11:49:07.293Z,98882.08
2017-12-02T11:50:10.661Z,98878.15
2017-12-02T11:51:13.662Z,98877.41
2017-12-02T11:52:16.872Z,98875.01
2017-12-02T11:53:19.843Z,98878.11
2017-12-02T11:54:22.839Z,98871.44
2017-12-02T11:55:25.838Z,98870.69
2017-12-02T11:56:29.056Z,98865.23
2017-12-02T11:57:32.044Z,98866.53
2017-12-02T11:58:35.167Z,98869.55
2017-12-02T11:59:38.614Z,98865.11
2017-12-02T12:00:41.684Z,98867.70
2017-12-02T12:01:44.690Z,98869.59
2017-12-02T12:02:47.978Z,98869.42
2017-12-02T12:03:51.177Z,98867.13
2017-12-02T12:04:55.228Z,98870.09
2017-12-02T12:05:58.758Z,98871.95
2017-12-02T12:07:01.889Z,98863.62
2017-12-02T12:08:05.021Z,98870.16
2017-12-02T12:09:08.090Z,98861.98
2017-12-02T12:10:11.508Z,98874.41
2017-12-02T12:11:14.833Z,98863.09
2017-12-02T12:12:18.145Z,98865.72
2017-12-02T12:13:21.666Z,98868.77
2017-12-02T12:14:24.729Z,98865.61
2017-12-02T12:15:28.344Z,98871.99
2017-12-02T12:16:31.673Z,98874.65
2017-12-02T12:17:35.127Z,98871.47
2017-12-02T12:18:38.382Z,98870.77
2017-12-02T12:19:41.675Z,98868.80
2017-12-02T12:20:44.734Z,98870.88